CYVM/YVM METAR and TAF weather

Enter ICAO airport designator
Station Type Date Time Source
CYVM METAR 2024/07/13 03:09 UTC NOAA

CYVM 130309Z AUTO 35002KT 9SM SCT007 OVC060 01/00 A2957 RMK SLP017


Station Type Date Time Source
CYVM Decoded METAR 2024/07/13 03:09 UTC NOAA

Broughton Island Airport, Canada (CYVM) 67-33N 064-02W
Jul 12, 2024 - 11:09 PM EDT / 2024.07.13 0309 UTC
Wind: from the N (350 degrees) at 2 MPH (2 KT):0
Visibility: 9 mile(s):0
Sky conditions: overcast
Temperature: 33 F (1 C)
Dew Point: 32 F (0 C)
Relative Humidity: 93%
Pressure (altimeter): 29.57 in. Hg (1001 hPa)
ob: CYVM 130309Z AUTO 35002KT 9SM SCT007 OVC060 01/00 A2957 RMK SLP017
cycle: 3

Station Type Date Time Source
CYVM TAF 2024/07/13 02:27 UTC NOAA